Startpagina
METAR-TAF:

METAR-TAF

Vliegvelden :

Capo Mele

Andora, Italië

breedte: 43-57N, lengte: 008-10E, hoogte: 220 m

Actueel weer

Dit bericht is 8 uur en het 42 minuten geleden gemaakt, om 17:55 UTC
Wind 10 kt uit het westzuidwesten
Temperatuur 22°C
Vochtigheid 83%
Druk 1015 hPa
Zicht 10 km of meer
geen wolken onder 1500 m en geen cumulonimbus

METAR: LIMU 231755Z 24010KT CAVOK 22/19 Q1015 RMK FEW FEW200 QUK 2 QUL 1 S VIS MAR 35 KM VIS MIN 9999

Tijdstip: 04:37 (02:37 UTC)


TAF: ontbreekt

Waarnemingen en weersverwachtingen van meer dan 4000 vliegvelden (METAR en TAF).

De beschikbare stations zijn de gele en rode punten op de kaart.

Ga met uw muis naar het station om de naam te zien.

Klik dan om waarnemingen en weersverwachtingen te zien.

kaart wijzigen: klik op de groene knoppen met een zwart kruis om in te zoomen, op de groene knop met een streepje om uit te zoomen of op de groene pijlen voor aangrenzende kaarten.


METAR-TAF: